sensor_id;sensor_type;location;lat;lon;timestamp;temperature;humidity
64062;DHT22;50308;47.438;-1.528;2022-09-09T00:01:37;20.50;68.60
64062;DHT22;50308;47.438;-1.528;2022-09-09T00:04:18;20.50;68.50
64062;DHT22;50308;47.438;-1.528;2022-09-09T00:07:13;20.50;68.70
64062;DHT22;50308;47.438;-1.528;2022-09-09T00:15:16;20.60;68.30
64062;DHT22;50308;47.438;-1.528;2022-09-09T00:18:06;20.60;68.30
64062;DHT22;50308;47.438;-1.528;2022-09-09T00:20:52;20.60;68.60
64062;DHT22;50308;47.438;-1.528;2022-09-09T00:23:42;20.60;68.70
64062;DHT22;50308;47.438;-1.528;2022-09-09T00:26:29;20.60;68.60
64062;DHT22;50308;47.438;-1.528;2022-09-09T00:31:44;20.50;68.80
64062;DHT22;50308;47.438;-1.528;2022-09-09T00:34:24;20.50;68.60
64062;DHT22;50308;47.438;-1.528;2022-09-09T00:36:58;20.50;68.50
64062;DHT22;50308;47.438;-1.528;2022-09-09T00:39:47;20.50;68.60
64062;DHT22;50308;47.438;-1.528;2022-09-09T00:42:41;20.60;68.50
64062;DHT22;50308;47.438;-1.528;2022-09-09T00:47:53;20.40;68.60
64062;DHT22;50308;47.438;-1.528;2022-09-09T00:53:28;20.40;68.70
64062;DHT22;50308;47.438;-1.528;2022-09-09T00:56:16;20.50;69.00
64062;DHT22;50308;47.438;-1.528;2022-09-09T00:59:11;20.50;69.00
64062;DHT22;50308;47.438;-1.528;2022-09-09T01:01:42;20.50;68.90
64062;DHT22;50308;47.438;-1.528;2022-09-09T01:04:14;20.60;69.00
64062;DHT22;50308;47.438;-1.528;2022-09-09T01:06:43;20.50;69.10
64062;DHT22;50308;47.438;-1.528;2022-09-09T01:09:18;20.40;71.30
64062;DHT22;50308;47.438;-1.528;2022-09-09T01:22:35;19.90;72.50
64062;DHT22;50308;47.438;-1.528;2022-09-09T01:28:03;20.10;71.80
64062;DHT22;50308;47.438;-1.528;2022-09-09T01:30:33;20.00;71.50
64062;DHT22;50308;47.438;-1.528;2022-09-09T01:33:04;20.10;71.70
64062;DHT22;50308;47.438;-1.528;2022-09-09T01:38:13;20.00;71.60
64062;DHT22;50308;47.438;-1.528;2022-09-09T01:40:39;20.00;71.40
64062;DHT22;50308;47.438;-1.528;2022-09-09T01:43:05;20.00;71.50
64062;DHT22;50308;47.438;-1.528;2022-09-09T01:45:33;20.00;71.60
64062;DHT22;50308;47.438;-1.528;2022-09-09T01:48:00;20.00;71.60
64062;DHT22;50308;47.438;-1.528;2022-09-09T01:54:24;20.00;71.70
64062;DHT22;50308;47.438;-1.528;2022-09-09T01:57:00;20.00;71.60
64062;DHT22;50308;47.438;-1.528;2022-09-09T02:05:18;19.90;71.80
64062;DHT22;50308;47.438;-1.528;2022-09-09T02:07:48;19.90;71.60
64062;DHT22;50308;47.438;-1.528;2022-09-09T02:10:25;19.90;71.60
64062;DHT22;50308;47.438;-1.528;2022-09-09T02:13:14;20.00;71.60
64062;DHT22;50308;47.438;-1.528;2022-09-09T02:15:43;19.90;71.80
64062;DHT22;50308;47.438;-1.528;2022-09-09T02:18:13;19.80;71.90
64062;DHT22;50308;47.438;-1.528;2022-09-09T02:20:42;19.90;71.90
64062;DHT22;50308;47.438;-1.528;2022-09-09T02:23:09;19.90;72.00
64062;DHT22;50308;47.438;-1.528;2022-09-09T02:25:37;19.90;71.90
64062;DHT22;50308;47.438;-1.528;2022-09-09T02:28:06;20.00;71.80
64062;DHT22;50308;47.438;-1.528;2022-09-09T02:30:34;19.90;71.90
64062;DHT22;50308;47.438;-1.528;2022-09-09T02:33:02;19.90;71.90
64062;DHT22;50308;47.438;-1.528;2022-09-09T02:35:30;20.00;71.60
64062;DHT22;50308;47.438;-1.528;2022-09-09T02:37:59;20.00;71.60
64062;DHT22;50308;47.438;-1.528;2022-09-09T02:40:27;20.00;71.60
64062;DHT22;50308;47.438;-1.528;2022-09-09T02:42:54;20.00;71.50
64062;DHT22;50308;47.438;-1.528;2022-09-09T02:45:24;19.90;71.60
64062;DHT22;50308;47.438;-1.528;2022-09-09T02:48:01;20.00;71.60
64062;DHT22;50308;47.438;-1.528;2022-09-09T02:53:23;20.00;71.30
64062;DHT22;50308;47.438;-1.528;2022-09-09T02:56:13;20.10;71.40
64062;DHT22;50308;47.438;-1.528;2022-09-09T02:58:41;20.10;71.30
64062;DHT22;50308;47.438;-1.528;2022-09-09T03:01:07;20.10;71.40
64062;DHT22;50308;47.438;-1.528;2022-09-09T03:03:34;20.00;71.40
64062;DHT22;50308;47.438;-1.528;2022-09-09T03:06:00;20.00;71.90
64062;DHT22;50308;47.438;-1.528;2022-09-09T03:08:26;19.90;71.90
64062;DHT22;50308;47.438;-1.528;2022-09-09T03:10:54;19.90;71.90
64062;DHT22;50308;47.438;-1.528;2022-09-09T03:13:20;20.00;72.00
64062;DHT22;50308;47.438;-1.528;2022-09-09T03:15:47;20.00;72.00
64062;DHT22;50308;47.438;-1.528;2022-09-09T03:18:14;19.90;72.10
64062;DHT22;50308;47.438;-1.528;2022-09-09T03:20:40;20.00;72.00
64062;DHT22;50308;47.438;-1.528;2022-09-09T03:23:07;19.90;72.30
64062;DHT22;50308;47.438;-1.528;2022-09-09T03:25:34;19.90;72.60
64062;DHT22;50308;47.438;-1.528;2022-09-09T03:28:01;19.80;72.70
64062;DHT22;50308;47.438;-1.528;2022-09-09T03:30:28;19.70;72.50
64062;DHT22;50308;47.438;-1.528;2022-09-09T03:32:54;19.80;72.60
64062;DHT22;50308;47.438;-1.528;2022-09-09T03:35:21;19.80;72.50
64062;DHT22;50308;47.438;-1.528;2022-09-09T03:37:48;19.80;72.60
64062;DHT22;50308;47.438;-1.528;2022-09-09T03:40:20;19.90;72.30
64062;DHT22;50308;47.438;-1.528;2022-09-09T03:42:50;19.90;72.40
64062;DHT22;50308;47.438;-1.528;2022-09-09T03:45:21;19.90;72.40
64062;DHT22;50308;47.438;-1.528;2022-09-09T03:48:08;19.80;72.50
64062;DHT22;50308;47.438;-1.528;2022-09-09T03:50:51;19.80;72.70
64062;DHT22;50308;47.438;-1.528;2022-09-09T03:56:16;19.90;72.70
64062;DHT22;50308;47.438;-1.528;2022-09-09T03:58:42;19.90;72.40
64062;DHT22;50308;47.438;-1.528;2022-09-09T04:01:11;20.00;72.50
64062;DHT22;50308;47.438;-1.528;2022-09-09T04:03:39;19.90;72.60
64062;DHT22;50308;47.438;-1.528;2022-09-09T04:06:18;20.00;72.60
64062;DHT22;50308;47.438;-1.528;2022-09-09T04:08:55;20.00;72.50
64062;DHT22;50308;47.438;-1.528;2022-09-09T04:11:27;19.90;72.50
64062;DHT22;50308;47.438;-1.528;2022-09-09T04:13:56;19.90;72.60
64062;DHT22;50308;47.438;-1.528;2022-09-09T04:16:27;19.90;72.70
64062;DHT22;50308;47.438;-1.528;2022-09-09T04:18:55;19.90;72.50
64062;DHT22;50308;47.438;-1.528;2022-09-09T04:21:26;19.90;72.20
64062;DHT22;50308;47.438;-1.528;2022-09-09T04:23:54;19.90;72.40
64062;DHT22;50308;47.438;-1.528;2022-09-09T04:26:21;19.90;72.40
64062;DHT22;50308;47.438;-1.528;2022-09-09T04:28:50;19.90;72.10
64062;DHT22;50308;47.438;-1.528;2022-09-09T04:31:20;19.80;72.30
64062;DHT22;50308;47.438;-1.528;2022-09-09T04:33:50;19.80;72.20
64062;DHT22;50308;47.438;-1.528;2022-09-09T04:36:18;19.80;72.20
64062;DHT22;50308;47.438;-1.528;2022-09-09T04:38:52;19.70;72.00
64062;DHT22;50308;47.438;-1.528;2022-09-09T04:41:21;19.70;72.00
64062;DHT22;50308;47.438;-1.528;2022-09-09T04:43:53;19.70;72.10
64062;DHT22;50308;47.438;-1.528;2022-09-09T04:46:22;19.70;72.20
64062;DHT22;50308;47.438;-1.528;2022-09-09T04:48:53;19.60;72.10
64062;DHT22;50308;47.438;-1.528;2022-09-09T04:54:32;19.70;71.80
64062;DHT22;50308;47.438;-1.528;2022-09-09T04:57:14;19.80;71.80
64062;DHT22;50308;47.438;-1.528;2022-09-09T04:59:50;19.70;71.60
64062;DHT22;50308;47.438;-1.528;2022-09-09T05:02:22;19.70;71.90
64062;DHT22;50308;47.438;-1.528;2022-09-09T05:04:49;19.70;71.80
64062;DHT22;50308;47.438;-1.528;2022-09-09T05:07:16;19.80;71.60
64062;DHT22;50308;47.438;-1.528;2022-09-09T05:09:43;19.70;71.90
64062;DHT22;50308;47.438;-1.528;2022-09-09T05:12:11;19.70;71.90
64062;DHT22;50308;47.438;-1.528;2022-09-09T05:14:42;19.70;72.00
64062;DHT22;50308;47.438;-1.528;2022-09-09T05:17:22;19.70;71.80
64062;DHT22;50308;47.438;-1.528;2022-09-09T05:19:54;19.70;71.80
64062;DHT22;50308;47.438;-1.528;2022-09-09T05:22:20;19.70;71.60
64062;DHT22;50308;47.438;-1.528;2022-09-09T05:24:53;19.70;71.60
64062;DHT22;50308;47.438;-1.528;2022-09-09T05:27:19;19.70;71.50
64062;DHT22;50308;47.438;-1.528;2022-09-09T05:29:48;19.80;71.50
64062;DHT22;50308;47.438;-1.528;2022-09-09T05:32:14;19.80;71.50
64062;DHT22;50308;47.438;-1.528;2022-09-09T05:34:43;19.80;71.30
64062;DHT22;50308;47.438;-1.528;2022-09-09T05:37:09;19.70;71.50
64062;DHT22;50308;47.438;-1.528;2022-09-09T05:39:35;19.70;71.40
64062;DHT22;50308;47.438;-1.528;2022-09-09T05:42:05;19.70;71.20
64062;DHT22;50308;47.438;-1.528;2022-09-09T05:44:31;19.80;71.20
64062;DHT22;50308;47.438;-1.528;2022-09-09T05:46:58;19.80;71.20
64062;DHT22;50308;47.438;-1.528;2022-09-09T05:49:25;19.80;71.20
64062;DHT22;50308;47.438;-1.528;2022-09-09T05:51:51;19.70;71.30
64062;DHT22;50308;47.438;-1.528;2022-09-09T05:54:17;19.80;71.30
64062;DHT22;50308;47.438;-1.528;2022-09-09T05:56:46;19.80;71.20
64062;DHT22;50308;47.438;-1.528;2022-09-09T05:59:15;19.80;71.20
64062;DHT22;50308;47.438;-1.528;2022-09-09T06:01:41;19.80;71.40
64062;DHT22;50308;47.438;-1.528;2022-09-09T06:04:08;19.80;71.40
64062;DHT22;50308;47.438;-1.528;2022-09-09T06:06:38;19.80;71.40
64062;DHT22;50308;47.438;-1.528;2022-09-09T06:09:15;19.80;72.40
64062;DHT22;50308;47.438;-1.528;2022-09-09T06:11:43;19.70;71.20
64062;DHT22;50308;47.438;-1.528;2022-09-09T06:14:16;19.80;71.20
64062;DHT22;50308;47.438;-1.528;2022-09-09T06:16:49;19.80;71.20
64062;DHT22;50308;47.438;-1.528;2022-09-09T06:19:23;19.80;71.20
64062;DHT22;50308;47.438;-1.528;2022-09-09T06:21:53;19.90;71.20
64062;DHT22;50308;47.438;-1.528;2022-09-09T06:24:27;19.90;71.10
64062;DHT22;50308;47.438;-1.528;2022-09-09T06:27:00;19.90;71.10
64062;DHT22;50308;47.438;-1.528;2022-09-09T06:29:28;19.90;71.10
64062;DHT22;50308;47.438;-1.528;2022-09-09T06:31:56;19.90;71.10
64062;DHT22;50308;47.438;-1.528;2022-09-09T06:34:37;19.90;71.60
64062;DHT22;50308;47.438;-1.528;2022-09-09T06:37:03;19.90;71.40
64062;DHT22;50308;47.438;-1.528;2022-09-09T06:39:38;19.90;71.50
64062;DHT22;50308;47.438;-1.528;2022-09-09T06:42:06;19.90;71.50
64062;DHT22;50308;47.438;-1.528;2022-09-09T06:44:34;19.90;71.60
64062;DHT22;50308;47.438;-1.528;2022-09-09T06:47:00;19.90;71.70
64062;DHT22;50308;47.438;-1.528;2022-09-09T06:49:26;19.90;72.00
64062;DHT22;50308;47.438;-1.528;2022-09-09T06:51:52;19.90;71.90
64062;DHT22;50308;47.438;-1.528;2022-09-09T06:54:31;20.00;72.20
64062;DHT22;50308;47.438;-1.528;2022-09-09T06:57:06;20.00;72.40
64062;DHT22;50308;47.438;-1.528;2022-09-09T06:59:32;20.00;72.50
64062;DHT22;50308;47.438;-1.528;2022-09-09T07:01:58;20.00;72.50
64062;DHT22;50308;47.438;-1.528;2022-09-09T07:04:24;20.00;72.10
64062;DHT22;50308;47.438;-1.528;2022-09-09T07:06:50;19.90;72.40
64062;DHT22;50308;47.438;-1.528;2022-09-09T07:09:17;19.90;72.40
64062;DHT22;50308;47.438;-1.528;2022-09-09T07:11:51;19.90;72.30
64062;DHT22;50308;47.438;-1.528;2022-09-09T07:14:18;20.00;72.10
64062;DHT22;50308;47.438;-1.528;2022-09-09T07:16:45;20.00;72.20
64062;DHT22;50308;47.438;-1.528;2022-09-09T07:19:12;20.10;72.30
64062;DHT22;50308;47.438;-1.528;2022-09-09T07:21:39;20.10;72.00
64062;DHT22;50308;47.438;-1.528;2022-09-09T07:24:09;20.00;72.20
64062;DHT22;50308;47.438;-1.528;2022-09-09T07:26:37;20.00;72.50
64062;DHT22;50308;47.438;-1.528;2022-09-09T07:29:03;20.00;72.60
64062;DHT22;50308;47.438;-1.528;2022-09-09T07:31:34;20.00;72.60
64062;DHT22;50308;47.438;-1.528;2022-09-09T07:34:01;20.10;72.60
64062;DHT22;50308;47.438;-1.528;2022-09-09T07:36:33;20.10;72.50
64062;DHT22;50308;47.438;-1.528;2022-09-09T07:39:05;20.10;72.60
64062;DHT22;50308;47.438;-1.528;2022-09-09T07:41:35;20.10;72.50
64062;DHT22;50308;47.438;-1.528;2022-09-09T07:44:06;20.00;72.80
64062;DHT22;50308;47.438;-1.528;2022-09-09T07:46:32;20.00;72.50
64062;DHT22;50308;47.438;-1.528;2022-09-09T07:48:59;20.00;72.60
64062;DHT22;50308;47.438;-1.528;2022-09-09T07:51:29;20.00;72.20
64062;DHT22;50308;47.438;-1.528;2022-09-09T07:53:58;20.00;72.50
64062;DHT22;50308;47.438;-1.528;2022-09-09T07:56:25;20.00;72.30
64062;DHT22;50308;47.438;-1.528;2022-09-09T07:58:53;19.90;72.40
64062;DHT22;50308;47.438;-1.528;2022-09-09T08:01:27;20.00;72.80
64062;DHT22;50308;47.438;-1.528;2022-09-09T08:04:03;20.10;72.70
64062;DHT22;50308;47.438;-1.528;2022-09-09T08:06:36;20.10;72.40
64062;DHT22;50308;47.438;-1.528;2022-09-09T08:09:03;20.10;72.40
64062;DHT22;50308;47.438;-1.528;2022-09-09T08:11:30;20.00;72.00
64062;DHT22;50308;47.438;-1.528;2022-09-09T08:13:58;20.00;72.50
64062;DHT22;50308;47.438;-1.528;2022-09-09T08:16:32;20.00;72.90
64062;DHT22;50308;47.438;-1.528;2022-09-09T08:18:58;20.10;72.70
64062;DHT22;50308;47.438;-1.528;2022-09-09T08:21:29;20.30;72.40
64062;DHT22;50308;47.438;-1.528;2022-09-09T08:23:56;20.20;72.10
64062;DHT22;50308;47.438;-1.528;2022-09-09T08:26:25;20.30;72.00
64062;DHT22;50308;47.438;-1.528;2022-09-09T08:28:53;20.30;72.20
64062;DHT22;50308;47.438;-1.528;2022-09-09T08:31:24;20.20;72.10
64062;DHT22;50308;47.438;-1.528;2022-09-09T08:33:50;20.20;72.10
64062;DHT22;50308;47.438;-1.528;2022-09-09T08:36:20;20.30;72.40
64062;DHT22;50308;47.438;-1.528;2022-09-09T08:38:52;20.40;72.30
64062;DHT22;50308;47.438;-1.528;2022-09-09T08:50:22;20.40;71.80
64062;DHT22;50308;47.438;-1.528;2022-09-09T08:53:01;20.50;71.90
64062;DHT22;50308;47.438;-1.528;2022-09-09T08:55:40;20.40;71.20
64062;DHT22;50308;47.438;-1.528;2022-09-09T08:58:19;20.40;70.60
64062;DHT22;50308;47.438;-1.528;2022-09-09T09:01:00;20.40;71.30
64062;DHT22;50308;47.438;-1.528;2022-09-09T09:03:53;20.40;70.80
64062;DHT22;50308;47.438;-1.528;2022-09-09T09:06:40;20.50;70.60
64062;DHT22;50308;47.438;-1.528;2022-09-09T09:09:29;20.50;70.20
64062;DHT22;50308;47.438;-1.528;2022-09-09T09:12:00;20.50;69.60
64062;DHT22;50308;47.438;-1.528;2022-09-09T09:14:32;20.50;69.30
64062;DHT22;50308;47.438;-1.528;2022-09-09T09:17:05;20.50;69.00
64062;DHT22;50308;47.438;-1.528;2022-09-09T09:19:34;20.50;69.30
64062;DHT22;50308;47.438;-1.528;2022-09-09T09:22:25;20.60;69.10
64062;DHT22;50308;47.438;-1.528;2022-09-09T09:25:08;20.50;68.60
64062;DHT22;50308;47.438;-1.528;2022-09-09T09:30:35;20.60;68.50
64062;DHT22;50308;47.438;-1.528;2022-09-09T09:33:06;20.60;68.00
64062;DHT22;50308;47.438;-1.528;2022-09-09T09:35:34;20.60;67.90
64062;DHT22;50308;47.438;-1.528;2022-09-09T09:38:00;20.60;67.90
64062;DHT22;50308;47.438;-1.528;2022-09-09T09:40:26;20.60;67.70
64062;DHT22;50308;47.438;-1.528;2022-09-09T09:43:00;20.60;68.20
64062;DHT22;50308;47.438;-1.528;2022-09-09T09:45:42;20.60;67.80
64062;DHT22;50308;47.438;-1.528;2022-09-09T09:48:12;20.60;67.70
64062;DHT22;50308;47.438;-1.528;2022-09-09T09:50:55;20.60;67.50
64062;DHT22;50308;47.438;-1.528;2022-09-09T09:53:34;20.70;67.20
64062;DHT22;50308;47.438;-1.528;2022-09-09T09:56:11;20.70;67.60
64062;DHT22;50308;47.438;-1.528;2022-09-09T10:01:27;20.60;66.70
64062;DHT22;50308;47.438;-1.528;2022-09-09T10:04:16;20.60;66.70
64062;DHT22;50308;47.438;-1.528;2022-09-09T10:06:44;20.70;67.30
64062;DHT22;50308;47.438;-1.528;2022-09-09T10:09:28;20.70;67.40
64062;DHT22;50308;47.438;-1.528;2022-09-09T10:20:14;20.70;65.60
64062;DHT22;50308;47.438;-1.528;2022-09-09T10:22:57;20.70;65.10
64062;DHT22;50308;47.438;-1.528;2022-09-09T10:40:59;20.80;65.30
64062;DHT22;50308;47.438;-1.528;2022-09-09T10:43:31;20.70;64.90
64062;DHT22;50308;47.438;-1.528;2022-09-09T10:46:28;20.80;65.40
64062;DHT22;50308;47.438;-1.528;2022-09-09T10:54:43;20.80;64.60
64062;DHT22;50308;47.438;-1.528;2022-09-09T10:59:52;20.80;64.10
64062;DHT22;50308;47.438;-1.528;2022-09-09T11:02:34;20.80;65.00
64062;DHT22;50308;47.438;-1.528;2022-09-09T11:05:20;20.80;64.50
64062;DHT22;50308;47.438;-1.528;2022-09-09T11:11:03;20.80;65.10
64062;DHT22;50308;47.438;-1.528;2022-09-09T11:18:58;20.80;65.50
64062;DHT22;50308;47.438;-1.528;2022-09-09T11:21:35;20.80;65.80
64062;DHT22;50308;47.438;-1.528;2022-09-09T11:24:11;20.90;65.60
64062;DHT22;50308;47.438;-1.528;2022-09-09T11:27:00;20.90;65.80
64062;DHT22;50308;47.438;-1.528;2022-09-09T11:38:27;21.00;63.80
64062;DHT22;50308;47.438;-1.528;2022-09-09T11:41:01;21.00;63.10
64062;DHT22;50308;47.438;-1.528;2022-09-09T11:43:33;21.00;63.40
64062;DHT22;50308;47.438;-1.528;2022-09-09T11:46:04;21.00;62.70
64062;DHT22;50308;47.438;-1.528;2022-09-09T11:48:35;21.00;63.70
64062;DHT22;50308;47.438;-1.528;2022-09-09T11:51:10;21.10;63.50
64062;DHT22;50308;47.438;-1.528;2022-09-09T11:59:32;21.00;62.90
64062;DHT22;50308;47.438;-1.528;2022-09-09T12:02:09;21.00;64.10
64062;DHT22;50308;47.438;-1.528;2022-09-09T12:04:46;21.00;63.30
64062;DHT22;50308;47.438;-1.528;2022-09-09T12:12:50;21.00;65.40
64062;DHT22;50308;47.438;-1.528;2022-09-09T12:15:21;20.90;67.60
64062;DHT22;50308;47.438;-1.528;2022-09-09T12:17:50;20.90;67.80
64062;DHT22;50308;47.438;-1.528;2022-09-09T12:28:19;20.80;67.80
64062;DHT22;50308;47.438;-1.528;2022-09-09T12:33:37;21.00;67.00
64062;DHT22;50308;47.438;-1.528;2022-09-09T12:36:11;21.00;66.90
64062;DHT22;50308;47.438;-1.528;2022-09-09T12:38:40;21.00;66.90
64062;DHT22;50308;47.438;-1.528;2022-09-09T12:41:22;21.00;67.00
64062;DHT22;50308;47.438;-1.528;2022-09-09T12:43:48;21.00;67.10
64062;DHT22;50308;47.438;-1.528;2022-09-09T12:46:40;21.00;67.10
64062;DHT22;50308;47.438;-1.528;2022-09-09T12:49:30;21.00;67.70
64062;DHT22;50308;47.438;-1.528;2022-09-09T12:52:46;21.00;67.10
64062;DHT22;50308;47.438;-1.528;2022-09-09T12:54:47;21.10;66.90
64062;DHT22;50308;47.438;-1.528;2022-09-09T12:57:14;21.10;67.00
64062;DHT22;50308;47.438;-1.528;2022-09-09T12:59:43;21.10;66.90
64062;DHT22;50308;47.438;-1.528;2022-09-09T13:02:22;21.10;66.50
64062;DHT22;50308;47.438;-1.528;2022-09-09T13:04:49;21.20;66.10
64062;DHT22;50308;47.438;-1.528;2022-09-09T13:07:21;21.20;65.60
64062;DHT22;50308;47.438;-1.528;2022-09-09T13:09:48;21.20;65.10
64062;DHT22;50308;47.438;-1.528;2022-09-09T13:12:23;21.20;65.20
64062;DHT22;50308;47.438;-1.528;2022-09-09T13:14:54;21.20;64.30
64062;DHT22;50308;47.438;-1.528;2022-09-09T13:17:25;21.20;64.20
64062;DHT22;50308;47.438;-1.528;2022-09-09T13:19:53;21.10;64.80
64062;DHT22;50308;47.438;-1.528;2022-09-09T13:22:31;21.00;67.20
64062;DHT22;50308;47.438;-1.528;2022-09-09T13:25:04;20.80;68.10
64062;DHT22;50308;47.438;-1.528;2022-09-09T13:27:38;20.80;68.70
64062;DHT22;50308;47.438;-1.528;2022-09-09T13:30:22;20.70;69.00
64062;DHT22;50308;47.438;-1.528;2022-09-09T13:38:15;20.80;69.80
64062;DHT22;50308;47.438;-1.528;2022-09-09T13:40:58;20.80;69.60
64062;DHT22;50308;47.438;-1.528;2022-09-09T13:43:42;20.80;69.70
64062;DHT22;50308;47.438;-1.528;2022-09-09T13:46:32;20.80;69.80
64062;DHT22;50308;47.438;-1.528;2022-09-09T13:49:23;20.90;69.60
64062;DHT22;50308;47.438;-1.528;2022-09-09T13:52:04;20.90;69.20
64062;DHT22;50308;47.438;-1.528;2022-09-09T13:54:33;20.90;69.10
64062;DHT22;50308;47.438;-1.528;2022-09-09T13:56:59;21.00;68.80
64062;DHT22;50308;47.438;-1.528;2022-09-09T13:59:26;21.00;68.30
64062;DHT22;50308;47.438;-1.528;2022-09-09T14:01:53;21.00;67.70
64062;DHT22;50308;47.438;-1.528;2022-09-09T14:04:19;21.00;67.50
64062;DHT22;50308;47.438;-1.528;2022-09-09T14:06:48;21.00;67.70
64062;DHT22;50308;47.438;-1.528;2022-09-09T14:09:17;21.00;67.70
64062;DHT22;50308;47.438;-1.528;2022-09-09T14:11:44;21.00;67.50
64062;DHT22;50308;47.438;-1.528;2022-09-09T14:14:11;21.10;67.30
64062;DHT22;50308;47.438;-1.528;2022-09-09T14:16:42;21.10;67.30
64062;DHT22;50308;47.438;-1.528;2022-09-09T14:19:10;21.10;67.20
64062;DHT22;50308;47.438;-1.528;2022-09-09T14:21:37;21.20;67.10
64062;DHT22;50308;47.438;-1.528;2022-09-09T14:24:05;21.20;67.20
64062;DHT22;50308;47.438;-1.528;2022-09-09T14:26:33;21.20;67.20
64062;DHT22;50308;47.438;-1.528;2022-09-09T14:29:02;21.20;66.90
64062;DHT22;50308;47.438;-1.528;2022-09-09T14:31:34;21.20;67.70
64062;DHT22;50308;47.438;-1.528;2022-09-09T14:34:05;21.20;67.00
64062;DHT22;50308;47.438;-1.528;2022-09-09T14:36:33;21.20;66.90
64062;DHT22;50308;47.438;-1.528;2022-09-09T14:39:00;21.30;66.70
64062;DHT22;50308;47.438;-1.528;2022-09-09T14:41:27;21.30;68.40
64062;DHT22;50308;47.438;-1.528;2022-09-09T14:43:55;21.30;66.30
64062;DHT22;50308;47.438;-1.528;2022-09-09T14:46:21;21.30;66.00
64062;DHT22;50308;47.438;-1.528;2022-09-09T14:48:50;21.30;65.60
64062;DHT22;50308;47.438;-1.528;2022-09-09T14:51:22;21.30;64.80
64062;DHT22;50308;47.438;-1.528;2022-09-09T14:53:53;21.40;65.00
64062;DHT22;50308;47.438;-1.528;2022-09-09T14:56:22;21.40;63.80
64062;DHT22;50308;47.438;-1.528;2022-09-09T14:58:52;21.30;63.30
64062;DHT22;50308;47.438;-1.528;2022-09-09T15:01:19;21.30;64.30
64062;DHT22;50308;47.438;-1.528;2022-09-09T15:03:55;21.30;64.40
64062;DHT22;50308;47.438;-1.528;2022-09-09T15:06:29;21.30;63.40
64062;DHT22;50308;47.438;-1.528;2022-09-09T15:08:56;21.30;63.70
64062;DHT22;50308;47.438;-1.528;2022-09-09T15:11:30;21.40;63.20
64062;DHT22;50308;47.438;-1.528;2022-09-09T15:13:56;21.40;63.40
64062;DHT22;50308;47.438;-1.528;2022-09-09T15:16:25;21.40;62.60
64062;DHT22;50308;47.438;-1.528;2022-09-09T15:18:55;21.30;61.40
64062;DHT22;50308;47.438;-1.528;2022-09-09T15:21:24;21.40;63.70
64062;DHT22;50308;47.438;-1.528;2022-09-09T15:23:51;21.40;62.40
64062;DHT22;50308;47.438;-1.528;2022-09-09T15:26:18;21.40;61.50
64062;DHT22;50308;47.438;-1.528;2022-09-09T15:28:45;21.40;62.40
64062;DHT22;50308;47.438;-1.528;2022-09-09T15:31:19;21.40;61.00
64062;DHT22;50308;47.438;-1.528;2022-09-09T15:36:20;21.40;61.30
64062;DHT22;50308;47.438;-1.528;2022-09-09T15:38:48;21.40;59.30
64062;DHT22;50308;47.438;-1.528;2022-09-09T15:41:17;21.40;58.30
64062;DHT22;50308;47.438;-1.528;2022-09-09T15:43:49;21.50;58.10
64062;DHT22;50308;47.438;-1.528;2022-09-09T15:46:48;21.50;60.20
64062;DHT22;50308;47.438;-1.528;2022-09-09T15:49:25;21.40;58.80
64062;DHT22;50308;47.438;-1.528;2022-09-09T15:51:55;21.40;59.90
64062;DHT22;50308;47.438;-1.528;2022-09-09T15:54:24;21.40;59.30
64062;DHT22;50308;47.438;-1.528;2022-09-09T15:56:56;21.40;60.20
64062;DHT22;50308;47.438;-1.528;2022-09-09T15:59:24;21.40;59.60
64062;DHT22;50308;47.438;-1.528;2022-09-09T16:01:52;21.40;59.60
64062;DHT22;50308;47.438;-1.528;2022-09-09T16:04:19;21.40;59.70
64062;DHT22;50308;47.438;-1.528;2022-09-09T16:06:52;21.40;60.50
64062;DHT22;50308;47.438;-1.528;2022-09-09T16:09:20;21.40;62.30
64062;DHT22;50308;47.438;-1.528;2022-09-09T16:11:48;21.40;62.80
64062;DHT22;50308;47.438;-1.528;2022-09-09T16:14:16;21.40;60.40
64062;DHT22;50308;47.438;-1.528;2022-09-09T16:16:43;21.50;60.90
64062;DHT22;50308;47.438;-1.528;2022-09-09T16:19:11;21.40;59.20
64062;DHT22;50308;47.438;-1.528;2022-09-09T16:21:46;21.40;60.10
64062;DHT22;50308;47.438;-1.528;2022-09-09T16:24:15;21.40;60.50
64062;DHT22;50308;47.438;-1.528;2022-09-09T16:26:43;21.40;61.20
64062;DHT22;50308;47.438;-1.528;2022-09-09T16:29:11;21.50;59.70
64062;DHT22;50308;47.438;-1.528;2022-09-09T16:31:38;21.40;59.00
64062;DHT22;50308;47.438;-1.528;2022-09-09T16:34:07;21.40;58.30
64062;DHT22;50308;47.438;-1.528;2022-09-09T16:36:38;21.40;59.30
64062;DHT22;50308;47.438;-1.528;2022-09-09T16:39:13;21.40;59.90
64062;DHT22;50308;47.438;-1.528;2022-09-09T16:41:42;21.40;58.40
64062;DHT22;50308;47.438;-1.528;2022-09-09T16:44:11;21.40;59.10
64062;DHT22;50308;47.438;-1.528;2022-09-09T16:46:40;21.40;58.80
64062;DHT22;50308;47.438;-1.528;2022-09-09T16:49:09;21.40;59.30
64062;DHT22;50308;47.438;-1.528;2022-09-09T16:51:46;21.40;59.20
64062;DHT22;50308;47.438;-1.528;2022-09-09T16:54:20;21.40;60.20
64062;DHT22;50308;47.438;-1.528;2022-09-09T16:56:48;21.40;59.80
64062;DHT22;50308;47.438;-1.528;2022-09-09T16:59:16;21.40;58.70
64062;DHT22;50308;47.438;-1.528;2022-09-09T17:01:43;21.40;59.20
64062;DHT22;50308;47.438;-1.528;2022-09-09T17:04:18;21.40;58.50
64062;DHT22;50308;47.438;-1.528;2022-09-09T17:06:49;21.40;58.20
64062;DHT22;50308;47.438;-1.528;2022-09-09T17:09:16;21.40;58.10
64062;DHT22;50308;47.438;-1.528;2022-09-09T17:11:43;21.40;58.00
64062;DHT22;50308;47.438;-1.528;2022-09-09T17:14:13;21.40;57.30
64062;DHT22;50308;47.438;-1.528;2022-09-09T17:16:39;21.40;59.10
64062;DHT22;50308;47.438;-1.528;2022-09-09T17:19:07;21.40;57.30
64062;DHT22;50308;47.438;-1.528;2022-09-09T17:21:34;21.40;58.10
64062;DHT22;50308;47.438;-1.528;2022-09-09T17:24:00;21.30;57.60
64062;DHT22;50308;47.438;-1.528;2022-09-09T17:26:29;21.30;57.80
64062;DHT22;50308;47.438;-1.528;2022-09-09T17:28:56;21.30;57.80
64062;DHT22;50308;47.438;-1.528;2022-09-09T17:31:25;21.30;57.20
64062;DHT22;50308;47.438;-1.528;2022-09-09T17:33:53;21.30;58.30
64062;DHT22;50308;47.438;-1.528;2022-09-09T17:36:25;21.20;57.60
64062;DHT22;50308;47.438;-1.528;2022-09-09T17:38:55;21.20;58.50
64062;DHT22;50308;47.438;-1.528;2022-09-09T17:41:41;21.20;57.50
64062;DHT22;50308;47.438;-1.528;2022-09-09T17:44:15;21.20;58.40
64062;DHT22;50308;47.438;-1.528;2022-09-09T17:46:47;21.20;59.80
64062;DHT22;50308;47.438;-1.528;2022-09-09T17:52:16;21.10;60.00
64062;DHT22;50308;47.438;-1.528;2022-09-09T17:54:53;21.10;60.20
64062;DHT22;50308;47.438;-1.528;2022-09-09T17:57:23;21.10;60.50
64062;DHT22;50308;47.438;-1.528;2022-09-09T17:59:51;21.10;61.00
64062;DHT22;50308;47.438;-1.528;2022-09-09T18:02:18;21.10;61.20
64062;DHT22;50308;47.438;-1.528;2022-09-09T18:04:45;21.10;61.00
64062;DHT22;50308;47.438;-1.528;2022-09-09T18:07:12;21.10;60.40
64062;DHT22;50308;47.438;-1.528;2022-09-09T18:09:39;21.10;60.70